sensor_id;sensor_type;location;lat;lon;timestamp;pressure;altitude;pressure_sealevel;temperature;humidity
29315;BME280;16320;53.954;9.506;2023-10-31T00:00:54;99369.00;;;12.02;100.00
29315;BME280;16320;53.954;9.506;2023-10-31T00:03:58;99364.34;;;12.06;100.00
29315;BME280;16320;53.954;9.506;2023-10-31T00:07:03;99364.34;;;12.06;100.00
29315;BME280;16320;53.954;9.506;2023-10-31T00:10:07;99360.72;;;12.07;100.00
29315;BME280;16320;53.954;9.506;2023-10-31T00:13:13;99354.75;;;12.05;100.00
29315;BME280;16320;53.954;9.506;2023-10-31T00:16:18;99349.38;;;12.06;100.00
29315;BME280;16320;53.954;9.506;2023-10-31T00:19:22;99341.59;;;12.05;100.00
29315;BME280;16320;53.954;9.506;2023-10-31T00:22:27;99335.25;;;12.07;100.00
29315;BME280;16320;53.954;9.506;2023-10-31T00:25:33;99339.94;;;12.04;100.00
29315;BME280;16320;53.954;9.506;2023-10-31T00:28:37;99327.50;;;12.06;100.00
29315;BME280;16320;53.954;9.506;2023-10-31T00:31:42;99333.72;;;12.05;100.00
29315;BME280;16320;53.954;9.506;2023-10-31T00:34:47;99333.94;;;12.02;100.00
29315;BME280;16320;53.954;9.506;2023-10-31T00:37:51;99333.00;;;12.03;100.00
29315;BME280;16320;53.954;9.506;2023-10-31T00:40:55;99326.78;;;12.04;100.00
29315;BME280;16320;53.954;9.506;2023-10-31T00:44:00;99321.78;;;12.01;100.00
29315;BME280;16320;53.954;9.506;2023-10-31T00:47:05;99316.50;;;12.01;100.00
29315;BME280;16320;53.954;9.506;2023-10-31T00:50:09;99331.31;;;12.02;100.00
29315;BME280;16320;53.954;9.506;2023-10-31T00:53:14;99338.25;;;12.03;100.00
29315;BME280;16320;53.954;9.506;2023-10-31T00:56:19;99336.34;;;12.05;100.00
29315;BME280;16320;53.954;9.506;2023-10-31T00:59:23;99329.66;;;12.01;100.00
29315;BME280;16320;53.954;9.506;2023-10-31T01:02:28;99324.41;;;12.01;100.00
29315;BME280;16320;53.954;9.506;2023-10-31T01:05:32;99325.81;;;12.05;100.00
29315;BME280;16320;53.954;9.506;2023-10-31T01:08:37;99322.47;;;12.03;100.00
29315;BME280;16320;53.954;9.506;2023-10-31T01:11:41;99328.19;;;12.08;100.00
29315;BME280;16320;53.954;9.506;2023-10-31T01:14:45;99324.41;;;12.01;100.00
29315;BME280;16320;53.954;9.506;2023-10-31T01:17:50;99319.97;;;12.01;100.00
29315;BME280;16320;53.954;9.506;2023-10-31T01:20:55;99312.19;;;12.00;100.00
29315;BME280;16320;53.954;9.506;2023-10-31T01:23:59;99313.63;;;12.04;100.00
29315;BME280;16320;53.954;9.506;2023-10-31T01:27:04;99313.75;;;12.02;100.00
29315;BME280;16320;53.954;9.506;2023-10-31T01:30:08;99310.72;;;12.07;100.00
29315;BME280;16320;53.954;9.506;2023-10-31T01:33:13;99315.53;;;12.02;100.00
29315;BME280;16320;53.954;9.506;2023-10-31T01:36:18;99308.38;;;12.04;100.00
29315;BME280;16320;53.954;9.506;2023-10-31T01:39:22;99299.50;;;12.05;100.00
29315;BME280;16320;53.954;9.506;2023-10-31T01:42:27;99297.09;;;12.02;100.00
29315;BME280;16320;53.954;9.506;2023-10-31T01:45:31;99299.03;;;12.00;100.00
29315;BME280;16320;53.954;9.506;2023-10-31T01:48:35;99292.81;;;12.01;100.00
29315;BME280;16320;53.954;9.506;2023-10-31T01:51:40;99289.34;;;12.00;100.00
29315;BME280;16320;53.954;9.506;2023-10-31T01:54:45;99284.94;;;12.01;100.00
29315;BME280;16320;53.954;9.506;2023-10-31T01:57:50;99277.16;;;11.99;100.00
29315;BME280;16320;53.954;9.506;2023-10-31T02:00:54;99277.03;;;12.01;100.00
29315;BME280;16320;53.954;9.506;2023-10-31T02:03:59;99266.50;;;12.01;100.00
29315;BME280;16320;53.954;9.506;2023-10-31T02:07:06;99254.31;;;12.00;100.00
29315;BME280;16320;53.954;9.506;2023-10-31T02:10:11;99247.22;;;12.00;100.00
29315;BME280;16320;53.954;9.506;2023-10-31T02:13:17;99249.03;;;12.00;100.00
29315;BME280;16320;53.954;9.506;2023-10-31T02:16:22;99250.47;;;12.04;100.00
29315;BME280;16320;53.954;9.506;2023-10-31T02:19:26;99249.63;;;12.03;100.00
29315;BME280;16320;53.954;9.506;2023-10-31T02:22:31;99251.44;;;12.03;100.00
29315;BME280;16320;53.954;9.506;2023-10-31T02:25:35;99249.75;;;12.02;100.00
29315;BME280;16320;53.954;9.506;2023-10-31T02:28:40;99236.59;;;12.02;100.00
29315;BME280;16320;53.954;9.506;2023-10-31T02:31:45;99238.97;;;12.05;100.00
29315;BME280;16320;53.954;9.506;2023-10-31T02:34:49;99229.88;;;12.09;100.00
29315;BME280;16320;53.954;9.506;2023-10-31T02:37:54;99236.22;;;12.06;100.00
29315;BME280;16320;53.954;9.506;2023-10-31T02:40:58;99229.16;;;12.07;100.00
29315;BME280;16320;53.954;9.506;2023-10-31T02:44:03;99235.38;;;12.06;100.00
29315;BME280;16320;53.954;9.506;2023-10-31T02:47:07;99221.88;;;12.11;100.00
29315;BME280;16320;53.954;9.506;2023-10-31T02:50:12;99215.88;;;12.08;100.00
29315;BME280;16320;53.954;9.506;2023-10-31T02:53:18;99215.28;;;12.05;100.00
29315;BME280;16320;53.954;9.506;2023-10-31T02:56:23;99215.53;;;12.02;100.00
29315;BME280;16320;53.954;9.506;2023-10-31T02:59:27;99212.91;;;12.02;100.00
29315;BME280;16320;53.954;9.506;2023-10-31T03:02:32;99216.41;;;12.02;100.00
29315;BME280;16320;53.954;9.506;2023-10-31T03:05:39;99210.28;;;12.02;100.00
29315;BME280;16320;53.954;9.506;2023-10-31T03:08:44;99211.25;;;12.01;100.00
29315;BME280;16320;53.954;9.506;2023-10-31T03:11:49;99202.50;;;12.00;100.00
29315;BME280;16320;53.954;9.506;2023-10-31T03:14:54;99201.44;;;12.03;100.00
29315;BME280;16320;53.954;9.506;2023-10-31T03:17:58;99208.38;;;12.04;100.00
29315;BME280;16320;53.954;9.506;2023-10-31T03:21:02;99210.03;;;12.05;100.00
29315;BME280;16320;53.954;9.506;2023-10-31T03:24:07;99199.50;;;12.05;100.00
29315;BME280;16320;53.954;9.506;2023-10-31T03:27:12;99195.06;;;12.05;100.00
29315;BME280;16320;53.954;9.506;2023-10-31T03:30:16;99182.75;;;12.06;100.00
29315;BME280;16320;53.954;9.506;2023-10-31T03:33:22;99188.97;;;12.05;100.00
29315;BME280;16320;53.954;9.506;2023-10-31T03:36:27;99181.78;;;12.07;100.00
29315;BME280;16320;53.954;9.506;2023-10-31T03:39:32;99188.97;;;12.05;100.00
29315;BME280;16320;53.954;9.506;2023-10-31T03:42:37;99183.97;;;12.02;100.00
29315;BME280;16320;53.954;9.506;2023-10-31T03:45:42;99176.94;;;12.02;100.00
29315;BME280;16320;53.954;9.506;2023-10-31T03:48:47;99180.38;;;12.03;100.00
29315;BME280;16320;53.954;9.506;2023-10-31T03:51:51;99175.94;;;12.03;100.00
29315;BME280;16320;53.954;9.506;2023-10-31T03:54:55;99181.22;;;12.03;100.00
29315;BME280;16320;53.954;9.506;2023-10-31T03:58:00;99175.13;;;12.03;100.00
29315;BME280;16320;53.954;9.506;2023-10-31T04:01:04;99175.94;;;12.03;100.00
29315;BME280;16320;53.954;9.506;2023-10-31T04:04:09;99169.84;;;12.03;100.00
29315;BME280;16320;53.954;9.506;2023-10-31T04:07:16;99173.19;;;12.05;100.00
29315;BME280;16320;53.954;9.506;2023-10-31T04:10:21;99173.88;;;12.07;100.00
29315;BME280;16320;53.954;9.506;2023-10-31T04:13:26;99171.38;;;12.05;100.00
29315;BME280;16320;53.954;9.506;2023-10-31T04:16:31;99169.03;;;12.02;100.00
29315;BME280;16320;53.954;9.506;2023-10-31T04:19:39;99157.66;;;12.02;100.00
29315;BME280;16320;53.954;9.506;2023-10-31T04:22:44;99156.94;;;12.00;100.00
29315;BME280;16320;53.954;9.506;2023-10-31T04:25:51;99156.25;;;11.98;100.00
29315;BME280;16320;53.954;9.506;2023-10-31T04:28:56;99155.16;;;12.00;100.00
29315;BME280;16320;53.954;9.506;2023-10-31T04:32:01;99155.69;;;11.94;100.00
29315;BME280;16320;53.954;9.506;2023-10-31T04:35:05;99144.16;;;11.95;100.00
29315;BME280;16320;53.954;9.506;2023-10-31T04:38:10;99145.72;;;11.98;100.00
29315;BME280;16320;53.954;9.506;2023-10-31T04:41:15;99148.72;;;11.93;100.00
29315;BME280;16320;53.954;9.506;2023-10-31T04:44:20;99154.13;;;11.92;100.00
29315;BME280;16320;53.954;9.506;2023-10-31T04:47:24;99149.78;;;11.90;100.00
29315;BME280;16320;53.954;9.506;2023-10-31T04:50:29;99148.13;;;11.89;100.00
29315;BME280;16320;53.954;9.506;2023-10-31T04:53:34;99142.88;;;11.89;100.00
29315;BME280;16320;53.954;9.506;2023-10-31T04:56:39;99158.22;;;12.05;100.00
29315;BME280;16320;53.954;9.506;2023-10-31T04:59:44;99151.81;;;11.98;100.00
29315;BME280;16320;53.954;9.506;2023-10-31T05:02:49;99153.81;;;12.06;100.00
29315;BME280;16320;53.954;9.506;2023-10-31T05:05:54;99151.19;;;12.06;100.00
29315;BME280;16320;53.954;9.506;2023-10-31T05:08:58;99141.88;;;12.02;100.00
29315;BME280;16320;53.954;9.506;2023-10-31T05:12:03;99132.06;;;12.04;100.00
29315;BME280;16320;53.954;9.506;2023-10-31T05:15:08;99127.75;;;12.03;100.00
29315;BME280;16320;53.954;9.506;2023-10-31T05:18:12;99112.72;;;11.94;100.00
29315;BME280;16320;53.954;9.506;2023-10-31T05:21:20;99110.78;;;11.96;100.00
29315;BME280;16320;53.954;9.506;2023-10-31T05:24:28;99109.16;;;11.95;100.00
29315;BME280;16320;53.954;9.506;2023-10-31T05:27:32;99119.16;;;12.01;100.00
29315;BME280;16320;53.954;9.506;2023-10-31T05:30:38;99109.16;;;11.95;100.00
29315;BME280;16320;53.954;9.506;2023-10-31T05:33:44;99095.88;;;11.96;100.00
29315;BME280;16320;53.954;9.506;2023-10-31T05:36:48;99098.63;;;11.95;100.00
29315;BME280;16320;53.954;9.506;2023-10-31T05:39:53;99098.88;;;11.92;100.00
29315;BME280;16320;53.954;9.506;2023-10-31T05:42:57;99102.91;;;11.96;100.00
29315;BME280;16320;53.954;9.506;2023-10-31T05:46:02;99103.38;;;12.01;100.00
29315;BME280;16320;53.954;9.506;2023-10-31T05:49:07;99103.75;;;11.96;100.00
29315;BME280;16320;53.954;9.506;2023-10-31T05:52:12;99104.72;;;11.95;100.00
29315;BME280;16320;53.954;9.506;2023-10-31T05:55:17;99104.34;;;12.00;100.00
29315;BME280;16320;53.954;9.506;2023-10-31T05:58:21;99106.72;;;12.03;100.00
29315;BME280;16320;53.954;9.506;2023-10-31T06:01:26;99095.47;;;12.01;100.00
29315;BME280;16320;53.954;9.506;2023-10-31T06:04:31;99094.75;;;11.99;100.00
29315;BME280;16320;53.954;9.506;2023-10-31T06:07:36;99089.75;;;11.96;100.00
29315;BME280;16320;53.954;9.506;2023-10-31T06:10:40;99085.00;;;11.89;100.00
29315;BME280;16320;53.954;9.506;2023-10-31T06:13:44;99085.91;;;12.00;100.00
29315;BME280;16320;53.954;9.506;2023-10-31T06:16:49;99087.00;;;11.97;100.00
29315;BME280;16320;53.954;9.506;2023-10-31T06:19:53;99086.34;;;12.05;100.00
29315;BME280;16320;53.954;9.506;2023-10-31T06:22:59;99083.28;;;12.00;100.00
29315;BME280;16320;53.954;9.506;2023-10-31T06:26:04;99079.44;;;12.04;100.00
29315;BME280;16320;53.954;9.506;2023-10-31T06:29:08;99081.78;;;12.07;100.00
29315;BME280;16320;53.954;9.506;2023-10-31T06:32:20;99080.00;;;12.07;100.00
29315;BME280;16320;53.954;9.506;2023-10-31T06:35:25;99075.63;;;11.97;100.00
29315;BME280;16320;53.954;9.506;2023-10-31T06:38:29;99065.13;;;11.97;100.00
29315;BME280;16320;53.954;9.506;2023-10-31T06:41:34;99071.63;;;11.93;100.00
29315;BME280;16320;53.954;9.506;2023-10-31T06:44:38;99075.63;;;11.97;100.00
29315;BME280;16320;53.954;9.506;2023-10-31T06:47:43;99080.53;;;12.01;100.00
29315;BME280;16320;53.954;9.506;2023-10-31T06:50:48;99084.69;;;12.04;100.00
29315;BME280;16320;53.954;9.506;2023-10-31T06:53:53;99080.13;;;12.06;100.00
29315;BME280;16320;53.954;9.506;2023-10-31T06:56:57;99075.31;;;12.11;100.00
29315;BME280;16320;53.954;9.506;2023-10-31T07:00:02;99083.22;;;12.11;100.00
29315;BME280;16320;53.954;9.506;2023-10-31T07:03:08;99077.25;;;12.09;100.00
29315;BME280;16320;53.954;9.506;2023-10-31T07:06:13;99081.66;;;12.08;100.00
29315;BME280;16320;53.954;9.506;2023-10-31T07:09:18;99078.47;;;12.05;100.00
29315;BME280;16320;53.954;9.506;2023-10-31T07:12:23;99077.06;;;12.01;100.00
29315;BME280;16320;53.954;9.506;2023-10-31T07:15:27;99078.59;;;12.03;100.00
29315;BME280;16320;53.954;9.506;2023-10-31T07:18:33;99077.06;;;12.01;100.00
29315;BME280;16320;53.954;9.506;2023-10-31T07:21:38;99081.22;;;12.03;100.00
29315;BME280;16320;53.954;9.506;2023-10-31T07:24:44;99078.47;;;12.05;100.00
29315;BME280;16320;53.954;9.506;2023-10-31T07:27:49;99080.41;;;12.03;100.00
29315;BME280;16320;53.954;9.506;2023-10-31T07:30:54;99082.06;;;12.04;100.00
29315;BME280;16320;53.954;9.506;2023-10-31T07:33:59;99085.53;;;12.04;100.00
29315;BME280;16320;53.954;9.506;2023-10-31T07:37:03;99087.34;;;12.04;100.00
29315;BME280;16320;53.954;9.506;2023-10-31T07:40:08;99092.59;;;12.04;100.00
29315;BME280;16320;53.954;9.506;2023-10-31T07:43:14;99095.22;;;12.04;100.00
29315;BME280;16320;53.954;9.506;2023-10-31T07:46:18;99093.28;;;12.06;100.00
29315;BME280;16320;53.954;9.506;2023-10-31T07:49:23;99095.47;;;12.01;100.00
29315;BME280;16320;53.954;9.506;2023-10-31T07:52:28;99094.63;;;12.00;100.00
29315;BME280;16320;53.954;9.506;2023-10-31T07:55:33;99099.44;;;11.95;100.00
29315;BME280;16320;53.954;9.506;2023-10-31T07:58:37;99100.44;;;11.94;100.00
29315;BME280;16320;53.954;9.506;2023-10-31T08:01:42;99105.81;;;11.93;100.00
29315;BME280;16320;53.954;9.506;2023-10-31T08:04:47;99116.78;;;11.98;100.00
29315;BME280;16320;53.954;9.506;2023-10-31T08:07:52;99116.66;;;11.99;100.00
29315;BME280;16320;53.954;9.506;2023-10-31T08:10:56;99127.19;;;11.99;100.00
29315;BME280;16320;53.954;9.506;2023-10-31T08:14:03;99129.94;;;11.98;100.00
29315;BME280;16320;53.954;9.506;2023-10-31T08:17:08;99137.38;;;11.93;100.00
29315;BME280;16320;53.954;9.506;2023-10-31T08:20:13;99147.41;;;11.87;100.00
29315;BME280;16320;53.954;9.506;2023-10-31T08:23:18;99155.81;;;11.81;100.00
29315;BME280;16320;53.954;9.506;2023-10-31T08:26:23;99168.47;;;11.76;100.00
29315;BME280;16320;53.954;9.506;2023-10-31T08:29:28;99184.91;;;11.68;100.00
29315;BME280;16320;53.954;9.506;2023-10-31T08:32:33;99188.25;;;11.59;100.00
29315;BME280;16320;53.954;9.506;2023-10-31T08:35:38;99196.16;;;11.59;100.00
29315;BME280;16320;53.954;9.506;2023-10-31T08:38:43;99202.13;;;11.61;100.00
29315;BME280;16320;53.954;9.506;2023-10-31T08:41:55;99210.38;;;11.57;100.00
29315;BME280;16320;53.954;9.506;2023-10-31T08:44:59;99210.75;;;11.52;100.00
29315;BME280;16320;53.954;9.506;2023-10-31T08:48:04;99226.78;;;11.49;100.00
29315;BME280;16320;53.954;9.506;2023-10-31T08:51:09;99227.13;;;11.44;100.00
29315;BME280;16320;53.954;9.506;2023-10-31T08:54:13;99246.72;;;11.40;100.00
29315;BME280;16320;53.954;9.506;2023-10-31T08:57:18;99252.09;;;11.39;100.00
29315;BME280;16320;53.954;9.506;2023-10-31T09:00:23;99252.72;;;11.31;100.00
29315;BME280;16320;53.954;9.506;2023-10-31T09:03:27;99270.63;;;11.14;100.00
29315;BME280;16320;53.954;9.506;2023-10-31T09:06:32;99275.88;;;11.03;100.00
29315;BME280;16320;53.954;9.506;2023-10-31T09:09:37;99290.88;;;10.90;100.00
29315;BME280;16320;53.954;9.506;2023-10-31T09:12:41;99302.56;;;10.74;100.00
29315;BME280;16320;53.954;9.506;2023-10-31T09:15:46;99322.97;;;10.71;100.00
29315;BME280;16320;53.954;9.506;2023-10-31T09:18:51;99331.41;;;10.63;100.00
29315;BME280;16320;53.954;9.506;2023-10-31T09:21:56;99347.72;;;10.55;100.00
29315;BME280;16320;53.954;9.506;2023-10-31T09:25:00;99367.19;;;10.53;100.00
29315;BME280;16320;53.954;9.506;2023-10-31T09:28:06;99386.50;;;10.52;100.00
29315;BME280;16320;53.954;9.506;2023-10-31T09:31:11;99407.50;;;10.52;100.00
29315;BME280;16320;53.954;9.506;2023-10-31T09:34:15;99421.78;;;10.48;100.00
29315;BME280;16320;53.954;9.506;2023-10-31T09:37:21;99444.69;;;10.46;100.00
29315;BME280;16320;53.954;9.506;2023-10-31T09:40:25;99453.97;;;10.38;100.00
29315;BME280;16320;53.954;9.506;2023-10-31T09:43:30;99476.28;;;10.31;100.00
29315;BME280;16320;53.954;9.506;2023-10-31T09:46:36;99488.16;;;10.24;100.00
29315;BME280;16320;53.954;9.506;2023-10-31T09:49:42;99508.44;;;10.22;100.00
29315;BME280;16320;53.954;9.506;2023-10-31T09:52:47;99514.84;;;10.18;100.00
29315;BME280;16320;53.954;9.506;2023-10-31T09:55:51;99535.00;;;10.17;100.00
29315;BME280;16320;53.954;9.506;2023-10-31T09:58:58;99548.22;;;10.16;100.00
29315;BME280;16320;53.954;9.506;2023-10-31T10:02:04;99566.78;;;10.13;100.00
29315;BME280;16320;53.954;9.506;2023-10-31T10:05:09;99575.91;;;10.07;100.00
29315;BME280;16320;53.954;9.506;2023-10-31T10:08:14;99582.00;;;10.07;100.00
29315;BME280;16320;53.954;9.506;2023-10-31T10:11:19;99595.22;;;10.06;100.00
29315;BME280;16320;53.954;9.506;2023-10-31T10:14:23;99611.78;;;10.06;100.00
29315;BME280;16320;53.954;9.506;2023-10-31T10:17:29;99619.13;;;10.01;100.00
29315;BME280;16320;53.954;9.506;2023-10-31T10:20:33;99623.66;;;9.99;100.00
29315;BME280;16320;53.954;9.506;2023-10-31T10:23:38;99620.28;;;9.97;100.00
29315;BME280;16320;53.954;9.506;2023-10-31T10:26:43;99637.19;;;9.93;100.00
29315;BME280;16320;53.954;9.506;2023-10-31T10:29:49;99638.19;;;9.90;100.00
29315;BME280;16320;53.954;9.506;2023-10-31T10:32:58;99646.94;;;9.91;100.00
29315;BME280;16320;53.954;9.506;2023-10-31T10:36:03;99648.50;;;9.94;100.00
29315;BME280;16320;53.954;9.506;2023-10-31T10:39:07;99656.25;;;9.95;100.00
29315;BME280;16320;53.954;9.506;2023-10-31T10:42:16;99663.31;;;9.95;100.00
29315;BME280;16320;53.954;9.506;2023-10-31T10:45:22;99661.31;;;9.98;100.00
29315;BME280;16320;53.954;9.506;2023-10-31T10:48:28;99661.09;;;10.01;100.00
29315;BME280;16320;53.954;9.506;2023-10-31T10:55:24;99680.41;;;10.00;100.00
29315;BME280;16320;53.954;9.506;2023-10-31T10:58:59;99686.94;;;10.07;100.00
29315;BME280;16320;53.954;9.506;2023-10-31T11:02:05;99685.44;;;10.03;100.00
29315;BME280;16320;53.954;9.506;2023-10-31T11:05:11;99687.34;;;10.01;100.00
29315;BME280;16320;53.954;9.506;2023-10-31T11:08:16;99685.84;;;9.97;100.00
29315;BME280;16320;53.954;9.506;2023-10-31T11:11:21;99681.75;;;9.93;100.00
29315;BME280;16320;53.954;9.506;2023-10-31T11:14:27;99680.06;;;9.92;100.00
29315;BME280;16320;53.954;9.506;2023-10-31T11:17:35;99681.03;;;9.91;100.00
29315;BME280;16320;53.954;9.506;2023-10-31T11:20:41;99685.22;;;9.94;100.00
29315;BME280;16320;53.954;9.506;2023-10-31T11:23:46;99689.81;;;9.90;100.00
29315;BME280;16320;53.954;9.506;2023-10-31T11:26:57;99682.44;;;9.82;100.00
29315;BME280;16320;53.954;9.506;2023-10-31T11:30:29;99687.06;;;9.79;100.00
29315;BME280;16320;53.954;9.506;2023-10-31T11:33:31;99670.50;;;9.78;100.00
29315;BME280;16320;53.954;9.506;2023-10-31T11:36:36;99679.72;;;9.84;100.00
29315;BME280;16320;53.954;9.506;2023-10-31T11:39:41;99686.47;;;9.88;100.00
29315;BME280;16320;53.954;9.506;2023-10-31T11:42:53;99687.50;;;9.85;100.00
29315;BME280;16320;53.954;9.506;2023-10-31T11:46:00;99698.81;;;9.86;100.00
29315;BME280;16320;53.954;9.506;2023-10-31T11:49:04;99704.84;;;9.88;100.00
29315;BME280;16320;53.954;9.506;2023-10-31T11:52:17;99710.81;;;9.90;100.00
29315;BME280;16320;53.954;9.506;2023-10-31T11:55:22;99704.06;;;9.86;100.00
29315;BME280;16320;53.954;9.506;2023-10-31T11:58:26;99694.63;;;9.83;100.00
29315;BME280;16320;53.954;9.506;2023-10-31T12:01:31;99710.38;;;9.83;100.00
29315;BME280;16320;53.954;9.506;2023-10-31T12:04:35;99718.34;;;9.82;100.00
29315;BME280;16320;53.954;9.506;2023-10-31T12:10:47;99713.63;;;9.60;100.00
29315;BME280;16320;53.954;9.506;2023-10-31T12:13:59;99717.47;;;9.54;100.00
29315;BME280;16320;53.954;9.506;2023-10-31T12:17:05;99718.41;;;9.53;100.00
29315;BME280;16320;53.954;9.506;2023-10-31T12:20:12;99726.47;;;9.50;100.00
29315;BME280;16320;53.954;9.506;2023-10-31T12:23:17;99726.19;;;9.55;100.00
29315;BME280;16320;53.954;9.506;2023-10-31T12:26:22;99729.00;;;9.51;100.00
29315;BME280;16320;53.954;9.506;2023-10-31T12:29:26;99734.81;;;9.42;100.00
29315;BME280;16320;53.954;9.506;2023-10-31T12:32:31;99732.59;;;9.36;100.00
29315;BME280;16320;53.954;9.506;2023-10-31T12:35:35;99738.84;;;9.33;100.00
29315;BME280;16320;53.954;9.506;2023-10-31T12:38:40;99738.84;;;9.33;100.00
29315;BME280;16320;53.954;9.506;2023-10-31T12:41:46;99740.91;;;9.28;100.00
29315;BME280;16320;53.954;9.506;2023-10-31T12:44:51;99748.41;;;9.20;100.00
29315;BME280;16320;53.954;9.506;2023-10-31T12:48:06;99749.53;;;9.02;100.00
29315;BME280;16320;53.954;9.506;2023-10-31T12:51:11;99755.53;;;8.89;100.00
29315;BME280;16320;53.954;9.506;2023-10-31T12:54:27;99763.00;;;8.81;100.00
29315;BME280;16320;53.954;9.506;2023-10-31T12:57:35;99772.50;;;8.82;100.00
29315;BME280;16320;53.954;9.506;2023-10-31T13:00:39;99769.16;;;8.80;100.00
29315;BME280;16320;53.954;9.506;2023-10-31T13:03:50;99777.75;;;8.82;100.00
29315;BME280;16320;53.954;9.506;2023-10-31T13:07:03;99776.91;;;8.82;100.00
29315;BME280;16320;53.954;9.506;2023-10-31T13:10:08;99788.53;;;8.77;100.00
29315;BME280;16320;53.954;9.506;2023-10-31T13:13:14;99794.78;;;8.75;100.00
29315;BME280;16320;53.954;9.506;2023-10-31T13:16:19;99798.13;;;8.77;100.00
29315;BME280;16320;53.954;9.506;2023-10-31T13:19:23;99809.91;;;8.70;100.00
29315;BME280;16320;53.954;9.506;2023-10-31T13:22:28;99814.56;;;8.65;100.00
29315;BME280;16320;53.954;9.506;2023-10-31T13:25:33;99816.03;;;8.54;100.00
29315;BME280;16320;53.954;9.506;2023-10-31T13:28:37;99815.78;;;8.43;100.00
29315;BME280;16320;53.954;9.506;2023-10-31T13:31:43;99821.72;;;8.31;100.00
29315;BME280;16320;53.954;9.506;2023-10-31T13:34:48;99828.97;;;8.25;100.00
29315;BME280;16320;53.954;9.506;2023-10-31T13:37:52;99840.69;;;8.18;100.00
29315;BME280;16320;53.954;9.506;2023-10-31T13:40:57;99847.78;;;8.16;100.00
29315;BME280;16320;53.954;9.506;2023-10-31T13:44:01;99863.56;;;8.15;100.00
29315;BME280;16320;53.954;9.506;2023-10-31T13:47:07;99868.38;;;8.06;100.00
29315;BME280;16320;53.954;9.506;2023-10-31T13:50:12;99879.19;;;8.00;100.00
29315;BME280;16320;53.954;9.506;2023-10-31T13:53:16;99883.31;;;7.88;100.00
29315;BME280;16320;53.954;9.506;2023-10-31T13:56:22;99892.84;;;7.90;100.00
29315;BME280;16320;53.954;9.506;2023-10-31T13:59:27;99898.31;;;7.85;100.00
29315;BME280;16320;53.954;9.506;2023-10-31T14:02:31;99900.22;;;7.81;100.00
29315;BME280;16320;53.954;9.506;2023-10-31T14:05:39;99899.94;;;7.70;100.00
29315;BME280;16320;53.954;9.506;2023-10-31T14:08:43;99903.00;;;7.62;100.00
29315;BME280;16320;53.954;9.506;2023-10-31T14:11:48;99914.59;;;7.57;100.00
29315;BME280;16320;53.954;9.506;2023-10-31T14:14:53;99907.25;;;7.47;100.00
29315;BME280;16320;53.954;9.506;2023-10-31T14:17:57;99909.59;;;7.36;100.00
29315;BME280;16320;53.954;9.506;2023-10-31T14:21:03;99919.41;;;7.31;100.00
29315;BME280;16320;53.954;9.506;2023-10-31T14:24:08;99928.78;;;7.35;100.00
29315;BME280;16320;53.954;9.506;2023-10-31T14:27:16;99930.47;;;7.36;100.00
29315;BME280;16320;53.954;9.506;2023-10-31T14:30:20;99933.16;;;7.35;100.00
29315;BME280;16320;53.954;9.506;2023-10-31T14:33:25;99934.91;;;7.34;100.00
29315;BME280;16320;53.954;9.506;2023-10-31T14:36:29;99951.53;;;7.33;100.00
29315;BME280;16320;53.954;9.506;2023-10-31T14:39:34;99948.06;;;7.32;100.00
29315;BME280;16320;53.954;9.506;2023-10-31T14:42:41;99956.75;;;7.33;100.00
29315;BME280;16320;53.954;9.506;2023-10-31T14:45:46;99958.75;;;7.28;100.00
29315;BME280;16320;53.954;9.506;2023-10-31T14:48:50;99959.66;;;7.27;100.00
29315;BME280;16320;53.954;9.506;2023-10-31T14:51:55;99957.34;;;7.21;100.00
29315;BME280;16320;53.954;9.506;2023-10-31T14:54:59;99963.66;;;7.17;100.00
29315;BME280;16320;53.954;9.506;2023-10-31T14:58:05;99970.94;;;7.10;100.00
29315;BME280;16320;53.954;9.506;2023-10-31T15:01:12;99967.78;;;7.03;100.00
29315;BME280;16320;53.954;9.506;2023-10-31T15:04:18;99974.03;;;7.01;100.00
29315;BME280;16320;53.954;9.506;2023-10-31T15:07:22;99987.16;;;6.99;100.00
29315;BME280;16320;53.954;9.506;2023-10-31T15:10:26;99990.81;;;6.95;100.00
29315;BME280;16320;53.954;9.506;2023-10-31T15:13:33;99979.69;;;6.91;100.00
29315;BME280;16320;53.954;9.506;2023-10-31T15:16:38;99989.22;;;6.92;100.00
29315;BME280;16320;53.954;9.506;2023-10-31T15:19:43;99984.06;;;6.91;100.00
29315;BME280;16320;53.954;9.506;2023-10-31T15:22:47;99998.78;;;6.92;100.00
29315;BME280;16320;53.954;9.506;2023-10-31T15:25:51;100011.00;;;6.91;100.00
29315;BME280;16320;53.954;9.506;2023-10-31T15:28:56;100018.28;;;6.85;100.00
29315;BME280;16320;53.954;9.506;2023-10-31T15:32:01;100029.63;;;6.84;100.00
29315;BME280;16320;53.954;9.506;2023-10-31T15:35:05;100029.78;;;6.81;100.00
29315;BME280;16320;53.954;9.506;2023-10-31T15:38:11;100028.25;;;6.76;100.00
29315;BME280;16320;53.954;9.506;2023-10-31T15:41:16;100021.72;;;6.68;100.00
29315;BME280;16320;53.954;9.506;2023-10-31T15:44:21;100028.03;;;6.62;100.00
29315;BME280;16320;53.954;9.506;2023-10-31T15:47:27;100046.31;;;6.62;100.00
29315;BME280;16320;53.954;9.506;2023-10-31T15:50:31;100051.53;;;6.62;100.00
29315;BME280;16320;53.954;9.506;2023-10-31T15:53:35;100048.91;;;6.62;100.00
29315;BME280;16320;53.954;9.506;2023-10-31T15:56:40;100057.56;;;6.63;100.00
29315;BME280;16320;53.954;9.506;2023-10-31T15:59:44;100061.81;;;6.65;100.00
29315;BME280;16320;53.954;9.506;2023-10-31T16:02:49;100069.44;;;6.70;100.00
29315;BME280;16320;53.954;9.506;2023-10-31T16:05:53;100077.47;;;6.65;100.00
29315;BME280;16320;53.954;9.506;2023-10-31T16:08:58;100067.72;;;6.50;100.00
29315;BME280;16320;53.954;9.506;2023-10-31T16:12:03;100075.28;;;6.37;100.00
29315;BME280;16320;53.954;9.506;2023-10-31T16:15:09;100063.47;;;6.28;100.00
29315;BME280;16320;53.954;9.506;2023-10-31T16:18:14;100068.91;;;6.23;100.00